• Join FlightAware (Why Join?)
  • Login
  • US Flag 
04:24PM EDT


 

Airport Tracker/Info


-or-


 

Live Flight TrackerFlight Track Log ✈ N43044 ✈ 03-Jul-2013 ✈ KANE - D39

Flight Track Log - Related Links

Times and Time Zones

All times are in EDT time to prevent confusion due to time zone crossing. See the N43044 flight status page for this flight to view local times or setup timezone preferences in your user account.

Time Position Orientation Groundspeed Altitude Reporting Facility
EDT Latitude Longitude Course Direction KTS MPH feet Rate Location/Type
06:46PM 45.2017 -93.2592 295° West 110 127 2,500  Level Minneapolis Center
06:47PM 45.2158 -93.3011 296° West 118 136 2,600  Climbing Minneapolis Center
06:48PM 45.2392 -93.3619 299° West 125 144 2,600 180 Level Minneapolis Center
06:49PM 45.2536 -93.4019 297° West 118 136 3,000 480 Climbing Minneapolis Center
06:50PM 45.2195 -93.4326 296° West  Level Estimated
06:50PM 45.2653 -93.4367 296° West 102 117 3,600  Level Minneapolis Center
06:51PM 45.2319 -93.4697 295° West  Level Estimated
06:51PM 45.2778 -93.4736 296° West 103 119 4,100  Level Minneapolis Center
06:52PM 45.2919 -93.5111 298° West 108 124 4,700 480 Climbing Minneapolis Center
06:53PM 45.3075 -93.5561 296° West 106 122 5,100 180 Climbing Minneapolis Center
06:54PM 45.3206 -93.5956 295° West 111 128 5,100 -120 Level Minneapolis Center
06:55PM 45.3344 -93.6431 293° West 128 147 4,900 -240 Descending Minneapolis Center
06:56PM 45.3497 -93.6897 295° West 130 150 4,700 -180 Descending Minneapolis Center
06:57PM 45.3658 -93.7344 297° West 127 146 4,600 -60 Descending Minneapolis Center
06:58PM 45.3850 -93.7867 298° West 123 142 4,600 -120 Level Minneapolis Center
06:59PM 45.4008 -93.8294 298° West 123 142 4,400 -60 Descending Minneapolis Center
07:00PM 45.4131 -93.8731 292° West 121 139 4,500 60 Climbing Minneapolis Center
07:02PM 45.4253 -93.9169 292° West 119 137 4,600  Climbing Minneapolis Center
07:03PM 45.4386 -93.9619 293° West 124 143 4,500 -60 Descending Minneapolis Center
07:04PM 45.4547 -94.0189 292° West 129 148 4,500  Level Minneapolis Center
07:05PM 45.4689 -94.0633 294° West 124 143 4,500  Level Minneapolis Center
07:06PM 45.4858 -94.1069 299° West 125 144 4,500  Level Minneapolis Center
07:07PM 45.4997 -94.1519 294° West 124 143 4,500  Level Minneapolis Center
07:08PM 45.5131 -94.1983 292° West 127 146 4,500  Level Minneapolis Center
07:09PM 45.5256 -94.2458 291° West 129 148 4,500  Level Minneapolis Center
07:10PM 45.5422 -94.2989 294° West 124 143 4,600  Climbing Minneapolis Center
07:11PM 45.5575 -94.3422 297° West 123 142 4,500  Descending Minneapolis Center
07:12PM 45.5711 -94.3869 294° West 123 142 4,600  Climbing Minneapolis Center
07:13PM 45.5839 -94.4358 290° West 126 145 4,600  Level Minneapolis Center